createdAt,value
2023-02-27T00:01:29.191Z,101304.66
2023-02-27T00:03:58.311Z,101298.47
2023-02-27T00:06:28.502Z,101290.50
2023-02-27T00:08:57.055Z,101296.44
2023-02-27T00:11:25.966Z,101300.53
2023-02-27T00:13:54.698Z,101302.22
2023-02-27T00:16:23.511Z,101294.97
2023-02-27T00:18:52.020Z,101293.31
2023-02-27T00:21:20.624Z,101297.56
2023-02-27T00:23:51.596Z,101297.41
2023-02-27T00:26:20.300Z,101296.66
2023-02-27T00:28:48.687Z,101286.09
2023-02-27T00:31:17.208Z,101288.69
2023-02-27T00:33:45.827Z,101289.44
2023-02-27T00:36:14.582Z,101292.78
2023-02-27T00:38:43.143Z,101291.84
2023-02-27T00:41:13.020Z,101293.53
2023-02-27T00:43:41.461Z,101297.78
2023-02-27T00:46:10.367Z,101296.00
2023-02-27T00:48:38.915Z,101296.75
2023-02-27T00:51:07.411Z,101295.84
2023-02-27T00:53:35.907Z,101293.28
2023-02-27T00:56:04.742Z,101290.56
2023-02-27T00:58:34.700Z,101292.13
2023-02-27T01:01:03.338Z,101295.59
2023-02-27T01:03:31.942Z,101292.88
2023-02-27T01:06:00.489Z,101303.16
2023-02-27T01:08:29.018Z,101295.31
2023-02-27T01:10:58.588Z,101288.34
2023-02-27T01:13:27.251Z,101291.72
2023-02-27T01:15:57.311Z,101289.75
2023-02-27T01:18:25.877Z,101295.97
2023-02-27T01:20:54.717Z,101288.88
2023-02-27T01:23:23.871Z,101293.25
2023-02-27T01:25:52.380Z,101288.09
2023-02-27T01:28:21.208Z,101287.19
2023-02-27T01:30:50.043Z,101289.63
2023-02-27T01:33:19.927Z,101287.94
2023-02-27T01:35:48.398Z,101288.88
2023-02-27T01:38:16.887Z,101281.16
2023-02-27T01:40:45.886Z,101280.38
2023-02-27T01:43:17.846Z,101281.16
2023-02-27T01:45:48.776Z,101277.66
2023-02-27T01:48:21.974Z,101276.00
2023-02-27T01:50:54.664Z,101274.19
2023-02-27T01:53:26.040Z,101269.94
2023-02-27T01:55:59.323Z,101265.56
2023-02-27T01:58:28.437Z,101272.38
2023-02-27T02:00:57.235Z,101277.66
2023-02-27T02:03:34.113Z,101275.06
2023-02-27T02:06:06.071Z,101270.72
2023-02-27T02:08:39.360Z,101276.00
2023-02-27T02:11:09.071Z,101279.31
2023-02-27T02:13:39.189Z,101286.31
2023-02-27T02:16:22.596Z,101281.16
2023-02-27T02:19:02.227Z,101280.22
2023-02-27T02:22:01.816Z,101269.81
2023-02-27T02:25:08.268Z,101276.63
2023-02-27T02:27:53.755Z,101280.84
2023-02-27T02:30:45.087Z,101272.13
2023-02-27T02:33:41.386Z,101269.41
2023-02-27T02:36:48.973Z,101273.66
2023-02-27T02:39:35.796Z,101267.47
2023-02-27T02:42:11.055Z,101270.03
2023-02-27T02:44:47.035Z,101267.47
2023-02-27T02:47:26.261Z,101263.06
2023-02-27T02:50:02.120Z,101275.94
2023-02-27T02:52:41.037Z,101269.00
2023-02-27T02:55:17.814Z,101269.78
2023-02-27T02:57:54.467Z,101269.78
2023-02-27T03:00:28.914Z,101262.81
2023-02-27T03:03:06.220Z,101263.69
2023-02-27T03:05:42.171Z,101261.91
2023-02-27T03:08:14.766Z,101265.28
2023-02-27T03:10:50.499Z,101266.91
2023-02-27T03:13:25.796Z,101265.13
2023-02-27T03:16:00.780Z,101271.94
2023-02-27T03:18:36.003Z,101276.94
2023-02-27T03:21:09.316Z,101276.03
2023-02-27T03:23:43.822Z,101277.72
2023-02-27T03:26:18.362Z,101279.25
2023-02-27T03:28:57.679Z,101284.41
2023-02-27T03:31:34.181Z,101281.81
2023-02-27T03:34:10.343Z,101282.97
2023-02-27T03:36:47.913Z,101277.97
2023-02-27T03:39:28.296Z,101283.28
2023-02-27T03:42:07.989Z,101284.03
2023-02-27T03:45:00.399Z,101292.53
2023-02-27T03:47:30.045Z,101294.19
2023-02-27T03:49:58.740Z,101287.22
2023-02-27T03:52:29.919Z,101293.91
2023-02-27T03:55:01.722Z,101298.03
2023-02-27T03:57:32.878Z,101298.78
2023-02-27T04:00:01.619Z,101297.75
2023-02-27T04:02:30.087Z,101301.84
2023-02-27T04:04:58.946Z,101306.09
2023-02-27T04:07:59.821Z,101308.53
2023-02-27T04:10:46.578Z,101307.59
2023-02-27T04:13:41.167Z,101312.63
2023-02-27T04:16:45.945Z,101313.38
2023-02-27T04:19:29.411Z,101321.09
2023-02-27T04:22:07.552Z,101320.09
2023-02-27T04:24:43.587Z,101318.25
2023-02-27T04:27:23.216Z,101319.03
2023-02-27T04:29:58.341Z,101321.34
2023-02-27T04:32:32.911Z,101322.09
2023-02-27T04:35:05.952Z,101314.09
2023-02-27T04:37:43.768Z,101320.03
2023-02-27T04:40:16.773Z,101316.41
2023-02-27T04:42:49.471Z,101312.78
2023-02-27T04:45:23.673Z,101316.09
2023-02-27T04:47:57.342Z,101322.03
2023-02-27T04:50:29.419Z,101324.44
2023-02-27T04:53:03.711Z,101325.22
2023-02-27T04:55:36.891Z,101336.41
2023-02-27T04:58:11.213Z,101337.94
2023-02-27T05:00:45.805Z,101329.19
2023-02-27T05:03:16.285Z,101337.81
2023-02-27T05:05:47.437Z,101341.00
2023-02-27T05:08:24.314Z,101335.09
2023-02-27T05:10:59.635Z,101336.63
2023-02-27T05:13:33.235Z,101333.91
2023-02-27T05:16:10.537Z,101335.44
2023-02-27T05:18:39.322Z,101337.13
2023-02-27T05:21:17.085Z,101339.53
2023-02-27T05:23:57.257Z,101338.63
2023-02-27T05:26:35.854Z,101351.50
2023-02-27T05:29:11.536Z,101345.16
2023-02-27T05:31:48.239Z,101345.94
2023-02-27T05:34:23.873Z,101350.16
2023-02-27T05:36:56.620Z,101350.16
2023-02-27T05:39:30.024Z,101352.75
2023-02-27T05:42:02.897Z,101345.78
2023-02-27T05:44:35.476Z,101349.91
2023-02-27T05:47:10.461Z,101349.91
2023-02-27T05:49:43.812Z,101353.22
2023-02-27T05:52:16.151Z,101346.28
2023-02-27T05:54:50.335Z,101345.38
2023-02-27T05:57:24.387Z,101355.50
2023-02-27T05:59:59.275Z,101358.06
2023-02-27T06:02:29.186Z,101363.84
2023-02-27T06:04:57.946Z,101359.59
2023-02-27T06:07:26.349Z,101361.13
2023-02-27T06:09:54.938Z,101369.59
2023-02-27T06:12:23.448Z,101369.59
2023-02-27T06:14:52.326Z,101377.16
2023-02-27T06:17:20.793Z,101388.38
2023-02-27T06:19:50.664Z,101382.28
2023-02-27T06:22:19.206Z,101396.81
2023-02-27T06:24:47.686Z,101396.81
2023-02-27T06:27:16.133Z,101399.38
2023-02-27T06:29:44.630Z,101405.28
2023-02-27T06:32:13.278Z,101411.34
2023-02-27T06:34:41.868Z,101407.09
2023-02-27T06:37:11.778Z,101422.50
2023-02-27T06:39:40.307Z,101419.19
2023-02-27T06:42:08.720Z,101418.44
2023-02-27T06:44:37.171Z,101422.78
2023-02-27T06:47:05.650Z,101424.63
2023-02-27T06:49:34.218Z,101416.91
2023-02-27T06:52:02.716Z,101418.84
2023-02-27T06:54:32.558Z,101414.63
2023-02-27T06:57:01.017Z,101414.63
2023-02-27T06:59:29.365Z,101416.41
2023-02-27T07:01:59.152Z,101426.69
2023-02-27T07:04:27.725Z,101424.91
2023-02-27T07:07:36.466Z,101430.03
2023-02-27T07:09:46.123Z,101427.47
2023-02-27T07:12:14.666Z,101428.38
2023-02-27T07:14:43.353Z,101437.91
2023-02-27T07:17:11.791Z,101435.44
2023-02-27T07:19:40.182Z,101433.94
2023-02-27T07:22:09.531Z,101440.13
2023-02-27T07:24:38.371Z,101445.56
2023-02-27T07:27:08.225Z,101445.72
2023-02-27T07:29:36.730Z,101449.34
2023-02-27T07:32:05.469Z,101441.75
2023-02-27T07:34:34.780Z,101449.00
2023-02-27T07:37:03.294Z,101463.78
2023-02-27T07:39:31.895Z,101464.06
2023-02-27T07:42:00.383Z,101466.00
2023-02-27T07:44:30.298Z,101469.75
2023-02-27T07:46:58.716Z,101470.97
2023-02-27T07:49:27.202Z,101473.06
2023-02-27T07:51:55.698Z,101467.31
2023-02-27T07:54:24.345Z,101465.13
2023-02-27T07:56:52.828Z,101471.47
2023-02-27T07:59:21.195Z,101466.75
2023-02-27T08:01:51.196Z,101468.72
2023-02-27T08:04:19.594Z,101468.38
2023-02-27T08:06:48.063Z,101465.31
2023-02-27T08:09:17.667Z,101466.63
2023-02-27T08:11:48.763Z,101462.66
2023-02-27T08:14:17.447Z,101456.41
2023-02-27T08:16:45.832Z,101457.56
2023-02-27T08:19:15.954Z,101464.19
2023-02-27T08:21:44.376Z,101458.56
2023-02-27T08:24:12.827Z,101455.47
2023-02-27T08:26:41.160Z,101456.78
2023-02-27T08:29:09.617Z,101457.34
2023-02-27T08:31:38.123Z,101463.81
2023-02-27T08:34:10.358Z,101460.72
2023-02-27T08:36:41.147Z,101462.03
2023-02-27T08:39:10.548Z,101465.03
2023-02-27T08:41:38.838Z,101464.06
2023-02-27T08:44:07.189Z,101467.00
2023-02-27T08:46:35.504Z,101463.31
2023-02-27T08:49:03.841Z,101459.63
2023-02-27T08:51:32.184Z,101461.81
2023-02-27T08:54:02.113Z,101451.91
2023-02-27T08:56:30.608Z,101451.69
2023-02-27T08:58:59.072Z,101454.03
2023-02-27T09:01:31.829Z,101455.44
2023-02-27T09:04:00.627Z,101464.63
2023-02-27T09:06:29.580Z,101460.75
2023-02-27T09:08:58.989Z,101453.41
2023-02-27T09:11:29.201Z,101464.25
2023-02-27T09:13:58.821Z,101463.88
2023-02-27T09:16:27.855Z,101466.97
2023-02-27T09:18:56.681Z,101476.00
2023-02-27T09:21:25.629Z,101477.16
2023-02-27T09:23:54.947Z,101463.00
2023-02-27T09:26:38.919Z,101473.69
2023-02-27T09:29:10.573Z,101471.50
2023-02-27T09:31:38.917Z,101474.47
2023-02-27T09:34:07.327Z,101473.03
2023-02-27T09:36:35.804Z,101462.22
2023-02-27T09:39:04.484Z,101468.66
2023-02-27T09:41:43.711Z,101469.03
2023-02-27T09:44:39.891Z,101461.69
2023-02-27T09:47:17.977Z,101471.88
2023-02-27T09:49:55.210Z,101467.22
2023-02-27T09:52:23.584Z,101475.34
2023-02-27T09:54:54.133Z,101472.38
2023-02-27T09:57:32.665Z,101465.09
2023-02-27T10:00:07.617Z,101477.75
2023-02-27T10:02:51.290Z,101471.41
2023-02-27T10:05:30.954Z,101467.53
2023-02-27T10:08:06.688Z,101472.28
2023-02-27T10:10:41.584Z,101476.94
2023-02-27T10:13:31.085Z,101475.47
2023-02-27T10:16:03.540Z,101474.16
2023-02-27T10:18:36.614Z,101473.50
2023-02-27T10:21:08.619Z,101479.19
2023-02-27T10:23:43.154Z,101477.88
2023-02-27T10:26:20.672Z,101472.41
2023-02-27T10:28:49.323Z,101477.31
2023-02-27T10:31:24.042Z,101471.81
2023-02-27T10:33:53.553Z,101474.91
2023-02-27T10:36:33.030Z,101483.41
2023-02-27T10:39:06.732Z,101487.59
2023-02-27T10:41:36.827Z,101478.63
2023-02-27T10:44:05.610Z,101477.28
2023-02-27T10:46:38.783Z,101483.84
2023-02-27T10:49:19.085Z,101481.84
2023-02-27T10:52:04.289Z,101478.31
2023-02-27T10:54:32.897Z,101483.53
2023-02-27T10:57:03.822Z,101487.72
2023-02-27T10:59:36.452Z,101479.72
2023-02-27T11:02:23.418Z,101476.03
2023-02-27T11:04:54.613Z,101487.97
2023-02-27T11:07:35.010Z,101477.28
2023-02-27T11:10:17.157Z,101485.41
2023-02-27T11:12:59.863Z,101474.72
2023-02-27T11:15:30.299Z,101462.00
2023-02-27T11:18:27.215Z,101462.22
2023-02-27T11:21:09.693Z,101466.03
2023-02-27T11:23:38.608Z,101462.91
2023-02-27T11:26:16.364Z,101452.97
2023-02-27T11:28:44.878Z,101454.53
2023-02-27T11:31:21.989Z,101448.13
2023-02-27T11:33:54.376Z,101450.56
2023-02-27T11:36:23.852Z,101450.22
2023-02-27T11:38:57.494Z,101462.16
2023-02-27T11:41:31.661Z,101442.63
2023-02-27T11:44:03.000Z,101442.97
2023-02-27T11:46:47.975Z,101432.91
2023-02-27T11:49:32.046Z,101432.66
2023-02-27T11:52:09.423Z,101434.06
2023-02-27T11:54:41.788Z,101424.13
2023-02-27T11:57:20.325Z,101420.16
2023-02-27T11:59:53.280Z,101418.78
2023-02-27T12:02:29.938Z,101418.41
2023-02-27T12:05:07.745Z,101415.72
2023-02-27T12:07:42.470Z,101411.09
2023-02-27T12:10:17.145Z,101418.47
2023-02-27T12:12:48.263Z,101418.47
2023-02-27T12:15:25.128Z,101412.50
2023-02-27T12:18:00.563Z,101421.38
2023-02-27T12:20:36.226Z,101421.69
2023-02-27T12:23:14.923Z,101412.03
2023-02-27T12:25:47.299Z,101415.38
2023-02-27T12:28:37.620Z,101409.16
2023-02-27T12:31:18.123Z,101406.38
2023-02-27T12:33:53.372Z,101397.56
2023-02-27T12:36:23.312Z,101398.25
2023-02-27T12:38:52.775Z,101394.34
2023-02-27T12:41:43.955Z,101395.75
2023-02-27T12:44:29.129Z,101391.91
2023-02-27T12:47:12.341Z,101392.31
2023-02-27T12:49:50.033Z,101381.69
2023-02-27T12:52:31.973Z,101384.66
2023-02-27T12:55:05.748Z,101389.47
2023-02-27T12:57:49.206Z,101379.78
2023-02-27T13:00:21.144Z,101382.38
2023-02-27T13:03:05.136Z,101375.75
2023-02-27T13:05:45.154Z,101375.22
2023-02-27T13:08:50.610Z,101371.22
2023-02-27T13:11:26.312Z,101366.22
2023-02-27T13:14:00.456Z,101365.75
2023-02-27T13:16:34.749Z,101366.94
2023-02-27T13:19:07.157Z,101359.50
2023-02-27T13:21:39.844Z,101366.97
2023-02-27T13:24:24.191Z,101351.09
2023-02-27T13:26:58.878Z,101352.75
2023-02-27T13:29:29.074Z,101350.16
2023-02-27T13:32:05.455Z,101353.97
2023-02-27T13:34:38.488Z,101352.75
2023-02-27T13:37:08.957Z,101352.81
2023-02-27T13:39:53.703Z,101352.63
2023-02-27T13:42:54.115Z,101361.75
2023-02-27T13:45:48.941Z,101357.69
2023-02-27T13:48:39.983Z,101362.13
2023-02-27T13:51:28.006Z,101359.59
2023-02-27T13:54:16.039Z,101361.72
2023-02-27T13:56:48.428Z,101358.06
2023-02-27T13:59:22.217Z,101351.72
2023-02-27T14:01:54.357Z,101353.03
2023-02-27T14:04:26.245Z,101353.38
2023-02-27T14:06:59.561Z,101348.47
2023-02-27T14:09:34.876Z,101350.03
2023-02-27T14:12:07.182Z,101354.19
2023-02-27T14:14:45.425Z,101346.94
2023-02-27T14:17:15.475Z,101351.81
2023-02-27T14:19:59.293Z,101358.50
2023-02-27T14:23:05.998Z,101350.16
2023-02-27T14:25:39.258Z,101347.88
2023-02-27T14:28:21.329Z,101343.38
2023-02-27T14:30:55.047Z,101344.53
2023-02-27T14:33:38.048Z,101331.66
2023-02-27T14:36:15.133Z,101342.78
2023-02-27T14:38:44.003Z,101361.63
2023-02-27T14:41:28.412Z,101360.72
2023-02-27T14:44:01.404Z,101363.38
2023-02-27T14:46:33.707Z,101366.47
2023-02-27T14:49:05.462Z,101369.63
2023-02-27T14:51:36.921Z,101366.41
2023-02-27T14:54:09.976Z,101358.84
2023-02-27T14:56:38.355Z,101369.34
2023-02-27T14:59:23.387Z,101367.38
2023-02-27T15:01:52.038Z,101370.38
2023-02-27T15:04:23.185Z,101370.38
2023-02-27T15:06:53.615Z,101373.94
2023-02-27T15:09:25.402Z,101370.91
2023-02-27T15:12:03.611Z,101373.44
2023-02-27T15:14:36.701Z,101370.03
2023-02-27T15:17:18.100Z,101377.69
2023-02-27T15:19:48.376Z,101370.94
2023-02-27T15:22:28.917Z,101376.69
2023-02-27T15:25:07.551Z,101380.09
2023-02-27T15:27:38.114Z,101373.22
2023-02-27T15:30:22.152Z,101373.25
2023-02-27T15:32:50.890Z,101376.38
2023-02-27T15:35:22.209Z,101373.94
2023-02-27T15:37:53.716Z,101381.75
2023-02-27T15:40:25.486Z,101385.59
2023-02-27T15:42:58.459Z,101377.34
2023-02-27T15:45:31.639Z,101378.94
2023-02-27T15:48:00.321Z,101377.81
2023-02-27T15:50:32.383Z,101376.03
2023-02-27T15:53:05.614Z,101374.47
2023-02-27T15:55:38.422Z,101391.13
2023-02-27T15:58:19.389Z,101375.03
2023-02-27T16:00:49.886Z,101381.19
2023-02-27T16:03:24.353Z,101380.81
2023-02-27T16:05:54.049Z,101382.91
2023-02-27T16:08:22.605Z,101382.19
2023-02-27T16:10:51.998Z,101387.69
2023-02-27T16:13:39.704Z,101385.09
2023-02-27T16:16:25.084Z,101389.03
2023-02-27T16:18:56.143Z,101393.75
2023-02-27T16:21:25.522Z,101399.56
2023-02-27T16:23:55.089Z,101397.81
2023-02-27T16:26:30.843Z,101399.56
2023-02-27T16:29:02.605Z,101400.50
2023-02-27T16:31:35.643Z,101404.91
2023-02-27T16:34:16.286Z,101407.84
2023-02-27T16:36:54.596Z,101407.25
2023-02-27T16:39:23.393Z,101405.06
2023-02-27T16:41:53.484Z,101408.97
2023-02-27T16:44:23.721Z,101413.78
2023-02-27T16:46:54.209Z,101418.59
2023-02-27T16:49:25.799Z,101422.34
2023-02-27T16:51:54.386Z,101413.97
2023-02-27T16:54:23.283Z,101417.84
2023-02-27T16:56:52.297Z,101420.75
2023-02-27T16:59:32.478Z,101421.88
2023-02-27T17:02:03.747Z,101420.47
2023-02-27T17:04:32.939Z,101417.50
2023-02-27T17:07:06.398Z,101422.25
2023-02-27T17:09:37.761Z,101423.50
2023-02-27T17:12:06.459Z,101429.19
2023-02-27T17:14:36.663Z,101426.97
2023-02-27T17:17:08.397Z,101426.56
2023-02-27T17:19:36.798Z,101426.13
2023-02-27T17:22:05.387Z,101430.91
2023-02-27T17:24:33.932Z,101435.00
2023-02-27T17:27:02.444Z,101439.06
2023-02-27T17:29:31.179Z,101438.66
2023-02-27T17:32:02.887Z,101443.38
2023-02-27T17:34:32.853Z,101451.78
2023-02-27T17:37:01.403Z,101454.03
2023-02-27T17:39:29.909Z,101453.56
2023-02-27T17:41:58.364Z,101456.75
2023-02-27T17:44:26.922Z,101459.03
2023-02-27T17:46:55.580Z,101457.78
2023-02-27T17:49:24.207Z,101464.34
2023-02-27T17:51:54.056Z,101464.91
2023-02-27T17:54:22.656Z,101471.44
2023-02-27T17:56:51.216Z,101479.78
2023-02-27T17:59:22.926Z,101479.34
2023-02-27T18:01:53.458Z,101486.66
2023-02-27T18:04:23.857Z,101477.56
2023-02-27T18:06:53.992Z,101479.66
2023-02-27T18:09:22.546Z,101481.69
2023-02-27T18:11:51.253Z,101489.13
2023-02-27T18:14:19.732Z,101487.78
2023-02-27T18:16:48.390Z,101496.91
2023-02-27T18:19:17.422Z,101491.25
2023-02-27T18:21:47.154Z,101497.09
2023-02-27T18:24:18.199Z,101492.38
2023-02-27T18:26:46.810Z,101499.91
2023-02-27T18:29:16.263Z,101496.84
2023-02-27T18:31:47.111Z,101496.47
2023-02-27T18:34:15.849Z,101492.78
2023-02-27T18:36:44.298Z,101495.00
2023-02-27T18:39:12.932Z,101494.78
2023-02-27T18:41:42.992Z,101488.44
2023-02-27T18:44:11.621Z,101482.28
2023-02-27T18:46:40.642Z,101497.81
2023-02-27T18:49:09.602Z,101495.09
2023-02-27T18:51:38.555Z,101488.00
2023-02-27T18:54:07.152Z,101485.16
2023-02-27T18:56:35.792Z,101495.25
2023-02-27T18:59:06.844Z,101490.00
2023-02-27T19:01:37.307Z,101491.31
2023-02-27T19:04:07.830Z,101487.56
2023-02-27T19:06:38.942Z,101501.31
2023-02-27T19:11:54.532Z,101490.47
2023-02-27T19:14:24.405Z,101493.72
2023-02-27T19:16:53.454Z,101498.66
2023-02-27T19:19:21.915Z,101493.25
2023-02-27T19:21:50.596Z,101495.69
2023-02-27T19:24:19.079Z,101490.19
2023-02-27T19:26:47.745Z,101491.75
2023-02-27T19:29:16.984Z,101493.09
2023-02-27T19:31:47.028Z,101497.97
2023-02-27T19:34:15.884Z,101492.47
2023-02-27T19:36:44.503Z,101493.13
2023-02-27T19:39:13.010Z,101497.38
2023-02-27T19:41:41.969Z,101498.19
2023-02-27T19:44:10.827Z,101496.47
2023-02-27T19:46:41.346Z,101497.38
2023-02-27T19:49:11.892Z,101496.63
2023-02-27T19:51:41.495Z,101494.03
2023-02-27T19:54:13.627Z,101496.72
2023-02-27T19:56:42.605Z,101492.47
2023-02-27T19:59:12.405Z,101503.06
2023-02-27T20:01:41.509Z,101497.88
2023-02-27T20:04:12.848Z,101494.50
2023-02-27T20:06:43.034Z,101499.00
2023-02-27T20:09:14.424Z,101502.50
2023-02-27T20:11:43.918Z,101496.44
2023-02-27T20:14:17.176Z,101492.94
2023-02-27T20:16:48.792Z,101496.31
2023-02-27T20:19:19.909Z,101497.88
2023-02-27T20:21:48.825Z,101496.84
2023-02-27T20:24:18.816Z,101492.47
2023-02-27T20:26:49.862Z,101496.47
2023-02-27T20:29:20.389Z,101498.97
2023-02-27T20:31:51.313Z,101508.16
2023-02-27T20:34:24.858Z,101507.91
2023-02-27T20:36:57.173Z,101501.56
2023-02-27T20:39:27.942Z,101497.84
2023-02-27T20:41:56.483Z,101497.63
2023-02-27T20:44:24.911Z,101492.06
2023-02-27T20:46:53.458Z,101491.84
2023-02-27T20:49:23.370Z,101498.56
2023-02-27T20:51:51.864Z,101503.50
2023-02-27T20:54:23.215Z,101493.81
2023-02-27T20:56:53.746Z,101499.63
2023-02-27T20:59:25.199Z,101502.88
2023-02-27T21:01:54.848Z,101503.38
2023-02-27T21:04:26.117Z,101504.03
2023-02-27T21:06:55.788Z,101499.41
2023-02-27T21:09:24.289Z,101496.56
2023-02-27T21:11:52.784Z,101503.28
2023-02-27T21:14:21.553Z,101501.25
2023-02-27T21:16:50.069Z,101496.75
2023-02-27T21:19:18.786Z,101499.97
2023-02-27T21:21:48.707Z,101495.31
2023-02-27T21:24:17.895Z,101497.66
2023-02-27T21:26:46.346Z,101505.91
2023-02-27T21:29:16.791Z,101503.09
2023-02-27T21:31:48.866Z,101508.13
2023-02-27T21:34:20.073Z,101506.97
2023-02-27T21:36:50.368Z,101509.31
2023-02-27T21:39:21.997Z,101509.81
2023-02-27T21:41:59.588Z,101517.31
2023-02-27T21:44:29.632Z,101510.97
2023-02-27T21:46:58.689Z,101518.63
2023-02-27T21:49:52.288Z,101513.81
2023-02-27T21:52:22.254Z,101513.44
2023-02-27T21:54:51.162Z,101515.75
2023-02-27T21:57:23.548Z,101509.56
2023-02-27T21:59:52.953Z,101515.25
2023-02-27T22:02:22.147Z,101516.81
2023-02-27T22:04:50.759Z,101509.84
2023-02-27T22:07:19.284Z,101504.41
2023-02-27T22:09:49.976Z,101510.84
2023-02-27T22:12:18.999Z,101510.59
2023-02-27T22:14:47.489Z,101505.19
2023-02-27T22:17:15.930Z,101506.72
2023-02-27T22:19:44.553Z,101501.31
2023-02-27T22:22:13.004Z,101502.84
2023-02-27T22:24:42.016Z,101495.91
2023-02-27T22:27:11.833Z,101502.59
2023-02-27T22:29:42.201Z,101503.25
2023-02-27T22:32:11.424Z,101502.22
2023-02-27T22:34:39.919Z,101503.59
2023-02-27T22:37:08.404Z,101508.66
2023-02-27T22:39:37.212Z,101512.78
2023-02-27T22:42:05.760Z,101520.38
2023-02-27T22:44:35.613Z,101515.84
2023-02-27T22:47:04.255Z,101518.31
2023-02-27T22:49:32.752Z,101516.47
2023-02-27T22:52:01.180Z,101512.91
2023-02-27T22:54:30.384Z,101516.22
2023-02-27T22:56:58.851Z,101523.81
2023-02-27T22:59:27.431Z,101522.94
2023-02-27T23:01:57.338Z,101531.44
2023-02-27T23:04:25.852Z,101532.09
2023-02-27T23:06:56.239Z,101532.72
2023-02-27T23:09:27.228Z,101531.81
2023-02-27T23:11:55.864Z,101535.03
2023-02-27T23:14:24.307Z,101540.94
2023-02-27T23:16:52.876Z,101540.69
2023-02-27T23:19:23.399Z,101537.06
2023-02-27T23:21:51.923Z,101550.75
2023-02-27T23:24:21.249Z,101543.00
2023-02-27T23:26:51.512Z,101546.34
2023-02-27T23:29:20.502Z,101547.13
2023-02-27T23:31:49.046Z,101558.06
2023-02-27T23:34:17.706Z,101553.66
2023-02-27T23:36:47.567Z,101556.88
2023-02-27T23:39:16.065Z,101551.72
2023-02-27T23:41:44.579Z,101556.63
2023-02-27T23:44:30.298Z,101559.97
2023-02-27T23:46:58.769Z,101558.94
2023-02-27T23:49:27.311Z,101570.78
2023-02-27T23:51:57.160Z,101569.72
2023-02-27T23:54:25.775Z,101567.66
2023-02-27T23:56:54.297Z,101564.78
2023-02-27T23:59:22.722Z,101560.44
